sensor_id;sensor_type;location;lat;lon;timestamp;pressure;altitude;pressure_sealevel;temperature;humidity
18795;BME280;29610;49.022;12.114;2022-09-13T00:02:31;97507.41;;;12.30;100.00
18795;BME280;29610;49.022;12.114;2022-09-13T00:19:14;97492.69;;;11.99;100.00
18795;BME280;29610;49.022;12.114;2022-09-13T00:22:12;97484.09;;;12.09;100.00
18795;BME280;29610;49.022;12.114;2022-09-13T00:24:57;97485.44;;;12.03;100.00
18795;BME280;29610;49.022;12.114;2022-09-13T00:27:45;97476.47;;;12.02;100.00
18795;BME280;29610;49.022;12.114;2022-09-13T00:30:41;97487.69;;;12.01;100.00
18795;BME280;29610;49.022;12.114;2022-09-13T00:39:22;97494.16;;;11.96;100.00
18795;BME280;29610;49.022;12.114;2022-09-13T00:44:41;97496.88;;;11.96;100.00
18795;BME280;29610;49.022;12.114;2022-09-13T00:53:44;97467.66;;;11.85;100.00
18795;BME280;29610;49.022;12.114;2022-09-13T00:56:21;97469.50;;;11.93;100.00
18795;BME280;29610;49.022;12.114;2022-09-13T01:00:23;97462.50;;;12.04;100.00
18795;BME280;29610;49.022;12.114;2022-09-13T01:08:20;97460.22;;;12.38;100.00
18795;BME280;29610;49.022;12.114;2022-09-13T01:11:41;97467.19;;;12.60;100.00
18795;BME280;29610;49.022;12.114;2022-09-13T01:52:16;97432.19;;;12.62;100.00
18795;BME280;29610;49.022;12.114;2022-09-13T01:56:41;97429.13;;;12.51;100.00
18795;BME280;29610;49.022;12.114;2022-09-13T02:01:43;97438.44;;;12.50;100.00
18795;BME280;29610;49.022;12.114;2022-09-13T02:16:50;97450.94;;;12.07;100.00
18795;BME280;29610;49.022;12.114;2022-09-13T02:42:42;97460.81;;;11.99;100.00
18795;BME280;29610;49.022;12.114;2022-09-13T02:45:19;97457.06;;;12.04;100.00
18795;BME280;29610;49.022;12.114;2022-09-13T02:54:22;97454.44;;;11.54;100.00
18795;BME280;29610;49.022;12.114;2022-09-13T02:57:57;97474.78;;;11.56;100.00
18795;BME280;29610;49.022;12.114;2022-09-13T03:00:33;97471.44;;;11.51;100.00
18795;BME280;29610;49.022;12.114;2022-09-13T03:03:16;97455.50;;;11.41;100.00
18795;BME280;29610;49.022;12.114;2022-09-13T03:06:02;97470.06;;;11.45;100.00
18795;BME280;29610;49.022;12.114;2022-09-13T03:10:53;97457.78;;;11.59;100.00
18795;BME280;29610;49.022;12.114;2022-09-13T03:14:10;97452.88;;;11.53;100.00
18795;BME280;29610;49.022;12.114;2022-09-13T03:17:59;97439.31;;;11.44;100.00
18795;BME280;29610;49.022;12.114;2022-09-13T03:22:16;97424.53;;;11.33;100.00
18795;BME280;29610;49.022;12.114;2022-09-13T03:25:29;97421.34;;;11.31;100.00
18795;BME280;29610;49.022;12.114;2022-09-13T03:28:13;97420.75;;;11.26;100.00
18795;BME280;29610;49.022;12.114;2022-09-13T03:36:06;97406.72;;;10.95;100.00
18795;BME280;29610;49.022;12.114;2022-09-13T03:39:36;97407.72;;;10.90;100.00
18795;BME280;29610;49.022;12.114;2022-09-13T03:46:42;97394.94;;;10.91;100.00
18795;BME280;29610;49.022;12.114;2022-09-13T03:49:30;97379.75;;;10.90;100.00
18795;BME280;29610;49.022;12.114;2022-09-13T03:52:07;97398.06;;;11.01;100.00
18795;BME280;29610;49.022;12.114;2022-09-13T03:59:05;97407.88;;;11.14;100.00
18795;BME280;29610;49.022;12.114;2022-09-13T04:12:32;97396.13;;;11.22;100.00
18795;BME280;29610;49.022;12.114;2022-09-13T04:15:02;97414.97;;;11.27;100.00
18795;BME280;29610;49.022;12.114;2022-09-13T04:17:30;97403.06;;;11.20;100.00
18795;BME280;29610;49.022;12.114;2022-09-13T04:20:00;97404.69;;;11.33;100.00
18795;BME280;29610;49.022;12.114;2022-09-13T04:22:31;97403.91;;;11.32;100.00
18795;BME280;29610;49.022;12.114;2022-09-13T04:25:04;97399.97;;;11.42;100.00
18795;BME280;29610;49.022;12.114;2022-09-13T04:27:34;97396.63;;;11.57;100.00
18795;BME280;29610;49.022;12.114;2022-09-13T04:30:04;97410.53;;;11.64;100.00
18795;BME280;29610;49.022;12.114;2022-09-13T04:32:34;97413.09;;;11.81;100.00
18795;BME280;29610;49.022;12.114;2022-09-13T04:35:03;97405.63;;;11.90;100.00
18795;BME280;29610;49.022;12.114;2022-09-13T04:37:36;97406.53;;;11.94;100.00
18795;BME280;29610;49.022;12.114;2022-09-13T04:40:07;97416.22;;;12.04;100.00
18795;BME280;29610;49.022;12.114;2022-09-13T04:42:38;97422.03;;;12.14;100.00
18795;BME280;29610;49.022;12.114;2022-09-13T04:45:11;97421.81;;;12.19;100.00
18795;BME280;29610;49.022;12.114;2022-09-13T04:47:52;97418.88;;;12.24;100.00
18795;BME280;29610;49.022;12.114;2022-09-13T04:51:01;97414.78;;;12.30;100.00
18795;BME280;29610;49.022;12.114;2022-09-13T04:53:34;97425.94;;;12.37;100.00
18795;BME280;29610;49.022;12.114;2022-09-13T04:56:10;97405.28;;;12.36;100.00
18795;BME280;29610;49.022;12.114;2022-09-13T04:58:44;97422.44;;;12.49;100.00
18795;BME280;29610;49.022;12.114;2022-09-13T05:01:13;97417.19;;;12.44;100.00
18795;BME280;29610;49.022;12.114;2022-09-13T05:03:42;97426.38;;;12.51;100.00
18795;BME280;29610;49.022;12.114;2022-09-13T05:06:13;97422.63;;;12.56;100.00
18795;BME280;29610;49.022;12.114;2022-09-13T05:09:11;97438.22;;;12.67;100.00
